sensor_id;sensor_type;location;lat;lon;timestamp;pressure;altitude;pressure_sealevel;temperature;humidity
56040;BME280;43937;41.366;2.072;2023-04-21T00:01:28;100111.13;;;19.03;74.66
56040;BME280;43937;41.366;2.072;2023-04-21T00:03:54;100114.16;;;19.13;74.00
56040;BME280;43937;41.366;2.072;2023-04-21T00:08:16;100110.16;;;19.09;73.78
56040;BME280;43937;41.366;2.072;2023-04-21T00:10:41;100111.25;;;19.19;73.42
56040;BME280;43937;41.366;2.072;2023-04-21T00:13:07;100113.41;;;19.17;73.05
56040;BME280;43937;41.366;2.072;2023-04-21T00:15:52;100111.47;;;19.06;73.72
56040;BME280;43937;41.366;2.072;2023-04-21T00:19:28;100112.69;;;19.10;72.96
56040;BME280;43937;41.366;2.072;2023-04-21T00:24:53;100115.47;;;19.10;72.91
56040;BME280;43937;41.366;2.072;2023-04-21T00:27:18;100114.84;;;19.08;73.24
56040;BME280;43937;41.366;2.072;2023-04-21T00:34:56;100096.03;;;19.17;72.10
56040;BME280;43937;41.366;2.072;2023-04-21T00:40:40;100096.75;;;19.24;71.45
56040;BME280;43937;41.366;2.072;2023-04-21T00:43:06;100054.13;;;18.85;72.34
56040;BME280;43937;41.366;2.072;2023-04-21T00:45:32;100101.41;;;19.23;71.96
56040;BME280;43937;41.366;2.072;2023-04-21T00:47:57;100082.59;;;19.20;71.39
56040;BME280;43937;41.366;2.072;2023-04-21T00:51:46;100082.72;;;19.26;71.93
56040;BME280;43937;41.366;2.072;2023-04-21T00:55:49;100082.59;;;19.32;70.97
56040;BME280;43937;41.366;2.072;2023-04-21T00:58:35;100056.78;;;19.15;71.27
56040;BME280;43937;41.366;2.072;2023-04-21T01:02:51;100093.16;;;19.23;71.56
56040;BME280;43937;41.366;2.072;2023-04-21T01:05:16;100090.38;;;19.23;72.07
56040;BME280;43937;41.366;2.072;2023-04-21T01:09:04;100086.44;;;19.08;71.94
56040;BME280;43937;41.366;2.072;2023-04-21T01:14:39;100061.47;;;19.03;72.09
56040;BME280;43937;41.366;2.072;2023-04-21T01:17:05;100068.91;;;19.14;71.84
56040;BME280;43937;41.366;2.072;2023-04-21T01:19:34;100080.19;;;19.24;71.55
56040;BME280;43937;41.366;2.072;2023-04-21T01:22:01;100081.25;;;19.11;72.01
56040;BME280;43937;41.366;2.072;2023-04-21T01:24:41;100075.41;;;19.19;71.91
56040;BME280;43937;41.366;2.072;2023-04-21T01:27:17;100063.75;;;19.17;71.68
56040;BME280;43937;41.366;2.072;2023-04-21T01:29:47;100061.59;;;19.19;71.53
56040;BME280;43937;41.366;2.072;2023-04-21T01:32:16;100058.63;;;19.09;71.90
56040;BME280;43937;41.366;2.072;2023-04-21T01:34:42;100062.44;;;18.96;72.63
56040;BME280;43937;41.366;2.072;2023-04-21T01:37:12;100067.72;;;18.98;72.46
56040;BME280;43937;41.366;2.072;2023-04-21T01:39:39;100072.03;;;18.82;73.38
56040;BME280;43937;41.366;2.072;2023-04-21T01:42:06;100074.88;;;18.87;73.24
56040;BME280;43937;41.366;2.072;2023-04-21T01:48:42;100074.22;;;18.62;74.51
56040;BME280;43937;41.366;2.072;2023-04-21T01:51:07;100047.31;;;18.45;73.81
56040;BME280;43937;41.366;2.072;2023-04-21T01:54:25;100060.44;;;18.62;74.32
56040;BME280;43937;41.366;2.072;2023-04-21T01:56:50;100065.28;;;18.48;75.37
56040;BME280;43937;41.366;2.072;2023-04-21T02:01:31;100058.44;;;18.39;75.51
56040;BME280;43937;41.366;2.072;2023-04-21T02:05:13;100058.31;;;18.34;76.01
56040;BME280;43937;41.366;2.072;2023-04-21T02:09:27;100061.19;;;18.39;76.43
56040;BME280;43937;41.366;2.072;2023-04-21T02:11:53;100066.13;;;18.37;76.25
56040;BME280;43937;41.366;2.072;2023-04-21T02:14:19;100055.78;;;18.32;76.40
56040;BME280;43937;41.366;2.072;2023-04-21T02:17:49;100066.53;;;18.22;77.27
56040;BME280;43937;41.366;2.072;2023-04-21T02:20:32;100056.81;;;18.19;77.10
56040;BME280;43937;41.366;2.072;2023-04-21T02:22:58;100052.63;;;18.17;77.46
56040;BME280;43937;41.366;2.072;2023-04-21T02:25:23;100060.88;;;18.17;78.14
56040;BME280;43937;41.366;2.072;2023-04-21T02:30:15;100056.81;;;18.19;77.93
56040;BME280;43937;41.366;2.072;2023-04-21T02:36:39;100061.63;;;18.24;77.49
56040;BME280;43937;41.366;2.072;2023-04-21T02:39:04;100045.44;;;18.16;77.72
56040;BME280;43937;41.366;2.072;2023-04-21T02:41:30;100044.50;;;18.22;77.69
56040;BME280;43937;41.366;2.072;2023-04-21T02:46:06;100053.66;;;18.34;77.33
56040;BME280;43937;41.366;2.072;2023-04-21T02:48:31;100046.72;;;18.43;76.92
56040;BME280;43937;41.366;2.072;2023-04-21T02:50:57;100043.81;;;18.38;76.87
56040;BME280;43937;41.366;2.072;2023-04-21T02:53:22;100052.84;;;18.57;76.41
56040;BME280;43937;41.366;2.072;2023-04-21T02:55:48;100054.09;;;18.61;76.13
56040;BME280;43937;41.366;2.072;2023-04-21T02:58:13;100055.66;;;18.69;76.07
56040;BME280;43937;41.366;2.072;2023-04-21T03:00:39;100058.66;;;18.67;75.94
56040;BME280;43937;41.366;2.072;2023-04-21T03:08:46;100060.41;;;18.50;76.94
56040;BME280;43937;41.366;2.072;2023-04-21T03:12:00;100053.22;;;18.49;76.81
56040;BME280;43937;41.366;2.072;2023-04-21T03:18:37;100038.06;;;18.28;77.04
56040;BME280;43937;41.366;2.072;2023-04-21T03:21:02;100048.97;;;18.35;77.58
56040;BME280;43937;41.366;2.072;2023-04-21T03:23:28;100048.03;;;18.41;77.29
56040;BME280;43937;41.366;2.072;2023-04-21T03:25:53;100055.69;;;18.39;77.54
56040;BME280;43937;41.366;2.072;2023-04-21T03:28:56;100044.66;;;18.39;77.43
56040;BME280;43937;41.366;2.072;2023-04-21T03:31:22;100037.13;;;18.34;77.67
56040;BME280;43937;41.366;2.072;2023-04-21T03:33:47;100039.16;;;18.39;77.01
56040;BME280;43937;41.366;2.072;2023-04-21T03:36:13;100037.94;;;18.35;77.16
56040;BME280;43937;41.366;2.072;2023-04-21T03:38:38;100043.47;;;18.35;77.48
56040;BME280;43937;41.366;2.072;2023-04-21T03:41:59;100047.72;;;18.19;77.88
56040;BME280;43937;41.366;2.072;2023-04-21T03:44:25;100049.03;;;18.16;78.39
56040;BME280;43937;41.366;2.072;2023-04-21T03:49:07;100036.66;;;18.07;78.42
56040;BME280;43937;41.366;2.072;2023-04-21T03:52:47;100043.84;;;18.08;78.73
56040;BME280;43937;41.366;2.072;2023-04-21T03:56:16;100037.59;;;18.01;79.30
56040;BME280;43937;41.366;2.072;2023-04-21T03:58:41;100045.22;;;17.99;79.82
56040;BME280;43937;41.366;2.072;2023-04-21T04:01:07;100037.22;;;17.97;79.53
56040;BME280;43937;41.366;2.072;2023-04-21T04:04:56;100026.16;;;17.85;79.88
56040;BME280;43937;41.366;2.072;2023-04-21T04:07:21;100043.09;;;18.01;79.58
56040;BME280;43937;41.366;2.072;2023-04-21T04:09:46;100034.22;;;17.99;79.45
56040;BME280;43937;41.366;2.072;2023-04-21T04:12:29;100035.88;;;18.00;79.25
56040;BME280;43937;41.366;2.072;2023-04-21T04:14:55;100033.59;;;17.97;79.75
56040;BME280;43937;41.366;2.072;2023-04-21T04:17:21;100036.97;;;17.99;79.60
56040;BME280;43937;41.366;2.072;2023-04-21T04:19:46;100038.94;;;18.10;79.07
56040;BME280;43937;41.366;2.072;2023-04-21T04:22:11;100035.66;;;18.01;79.52
56040;BME280;43937;41.366;2.072;2023-04-21T04:24:37;100039.41;;;18.07;79.62
56040;BME280;43937;41.366;2.072;2023-04-21T04:27:02;100043.75;;;18.15;78.92
56040;BME280;43937;41.366;2.072;2023-04-21T04:29:28;100008.53;;;17.87;78.71
56040;BME280;43937;41.366;2.072;2023-04-21T04:31:54;100036.78;;;18.12;78.60
56040;BME280;43937;41.366;2.072;2023-04-21T04:34:20;100047.63;;;18.25;78.35
56040;BME280;43937;41.366;2.072;2023-04-21T04:36:47;100042.84;;;18.33;78.06
56040;BME280;43937;41.366;2.072;2023-04-21T04:41:06;100054.00;;;18.38;76.94
56040;BME280;43937;41.366;2.072;2023-04-21T04:44:37;100041.19;;;18.31;76.85
56040;BME280;43937;41.366;2.072;2023-04-21T04:47:42;100051.78;;;18.46;76.16
56040;BME280;43937;41.366;2.072;2023-04-21T04:50:20;100014.69;;;18.30;75.60
56040;BME280;43937;41.366;2.072;2023-04-21T04:52:47;100051.03;;;18.51;75.73
56040;BME280;43937;41.366;2.072;2023-04-21T04:55:13;100024.69;;;18.43;75.38
56040;BME280;43937;41.366;2.072;2023-04-21T04:57:39;100049.13;;;18.51;75.70
56040;BME280;43937;41.366;2.072;2023-04-21T05:00:06;100034.28;;;18.52;75.29
56040;BME280;43937;41.366;2.072;2023-04-21T05:02:34;100052.66;;;18.70;74.83
56040;BME280;43937;41.366;2.072;2023-04-21T05:05:00;100053.72;;;18.69;74.76
56040;BME280;43937;41.366;2.072;2023-04-21T05:07:25;100059.22;;;18.69;75.06
56040;BME280;43937;41.366;2.072;2023-04-21T05:09:51;100058.88;;;18.66;74.99
56040;BME280;43937;41.366;2.072;2023-04-21T05:12:16;100054.09;;;18.61;75.34
56040;BME280;43937;41.366;2.072;2023-04-21T05:14:42;100052.66;;;18.70;74.65
56040;BME280;43937;41.366;2.072;2023-04-21T05:17:07;100035.38;;;18.63;74.20
56040;BME280;43937;41.366;2.072;2023-04-21T05:19:46;100071.53;;;18.85;73.83
56040;BME280;43937;41.366;2.072;2023-04-21T05:22:12;100067.34;;;18.83;74.06
56040;BME280;43937;41.366;2.072;2023-04-21T05:24:40;100070.19;;;18.88;73.96
56040;BME280;43937;41.366;2.072;2023-04-21T05:27:06;100067.59;;;18.93;73.89
56040;BME280;43937;41.366;2.072;2023-04-21T05:29:32;100069.25;;;18.94;74.14
56040;BME280;43937;41.366;2.072;2023-04-21T05:35:18;100039.47;;;18.72;73.56
56040;BME280;43937;41.366;2.072;2023-04-21T05:37:43;100043.59;;;18.93;73.15
56040;BME280;43937;41.366;2.072;2023-04-21T05:42:23;100032.09;;;19.08;72.54
56040;BME280;43937;41.366;2.072;2023-04-21T05:46:41;100078.03;;;19.38;72.09
56040;BME280;43937;41.366;2.072;2023-04-21T05:49:06;100075.50;;;19.48;71.76
56040;BME280;43937;41.366;2.072;2023-04-21T05:51:32;100081.75;;;19.55;71.07
56040;BME280;43937;41.366;2.072;2023-04-21T05:55:45;100077.22;;;20.30;67.67
56040;BME280;43937;41.366;2.072;2023-04-21T05:58:10;100081.94;;;21.81;63.68
56040;BME280;43937;41.366;2.072;2023-04-21T06:00:36;100071.69;;;23.92;57.07
56040;BME280;43937;41.366;2.072;2023-04-21T06:03:02;100083.91;;;25.25;52.62
56040;BME280;43937;41.366;2.072;2023-04-21T06:05:27;100080.78;;;25.68;51.94
56040;BME280;43937;41.366;2.072;2023-04-21T06:07:53;100082.47;;;25.64;50.23
56040;BME280;43937;41.366;2.072;2023-04-21T06:10:19;100087.13;;;27.32;46.64
56040;BME280;43937;41.366;2.072;2023-04-21T06:15:32;100081.13;;;28.59;43.79
56040;BME280;43937;41.366;2.072;2023-04-21T06:18:16;100089.22;;;28.42;42.67
56040;BME280;43937;41.366;2.072;2023-04-21T06:27:48;100061.22;;;25.83;48.76
56040;BME280;43937;41.366;2.072;2023-04-21T06:30:14;100062.47;;;27.34;44.88
56040;BME280;43937;41.366;2.072;2023-04-21T06:32:39;100083.28;;;26.84;45.58
56040;BME280;43937;41.366;2.072;2023-04-21T06:35:05;100081.38;;;26.79;46.60
56040;BME280;43937;41.366;2.072;2023-04-21T06:40:43;100075.66;;;27.87;44.54
56040;BME280;43937;41.366;2.072;2023-04-21T06:43:09;100096.25;;;27.96;42.79
56040;BME280;43937;41.366;2.072;2023-04-21T06:45:36;100099.50;;;27.21;44.59
56040;BME280;43937;41.366;2.072;2023-04-21T06:49:36;100095.34;;;26.30;46.55
56040;BME280;43937;41.366;2.072;2023-04-21T06:53:31;100074.53;;;26.07;47.38
56040;BME280;43937;41.366;2.072;2023-04-21T06:55:56;100100.47;;;28.37;42.50
56040;BME280;43937;41.366;2.072;2023-04-21T06:59:24;100102.66;;;27.68;43.14
56040;BME280;43937;41.366;2.072;2023-04-21T07:01:50;100097.94;;;30.45;38.23
56040;BME280;43937;41.366;2.072;2023-04-21T07:04:18;100096.47;;;28.00;41.67
56040;BME280;43937;41.366;2.072;2023-04-21T07:07:52;100090.44;;;28.12;41.61
56040;BME280;43937;41.366;2.072;2023-04-21T07:10:21;100099.06;;;32.02;34.97
56040;BME280;43937;41.366;2.072;2023-04-21T07:14:10;100106.25;;;31.85;35.84
56040;BME280;43937;41.366;2.072;2023-04-21T07:18:05;100083.97;;;32.90;33.06
56040;BME280;43937;41.366;2.072;2023-04-21T07:20:31;100111.47;;;35.02;30.03
56040;BME280;43937;41.366;2.072;2023-04-21T07:25:36;100097.31;;;35.56;28.43
56040;BME280;43937;41.366;2.072;2023-04-21T07:28:03;100109.91;;;34.92;28.53
56040;BME280;43937;41.366;2.072;2023-04-21T07:32:54;100123.28;;;35.83;28.16
56040;BME280;43937;41.366;2.072;2023-04-21T07:37:19;100115.03;;;29.14;38.39
56040;BME280;43937;41.366;2.072;2023-04-21T07:39:46;100100.91;;;30.63;35.93
56040;BME280;43937;41.366;2.072;2023-04-21T07:47:58;100125.38;;;30.07;37.45
56040;BME280;43937;41.366;2.072;2023-04-21T07:50:24;100127.91;;;32.82;32.52
56040;BME280;43937;41.366;2.072;2023-04-21T07:53:56;100121.75;;;33.41;31.75
56040;BME280;43937;41.366;2.072;2023-04-21T07:56:21;100131.06;;;34.65;29.94
56040;BME280;43937;41.366;2.072;2023-04-21T07:58:47;100125.34;;;36.19;27.95
56040;BME280;43937;41.366;2.072;2023-04-21T08:02:03;100123.75;;;34.05;30.87
56040;BME280;43937;41.366;2.072;2023-04-21T08:04:28;100117.63;;;34.62;29.97
56040;BME280;43937;41.366;2.072;2023-04-21T08:06:54;100129.81;;;35.83;27.67
56040;BME280;43937;41.366;2.072;2023-04-21T08:09:19;100130.28;;;35.19;28.29
56040;BME280;43937;41.366;2.072;2023-04-21T08:11:45;100128.59;;;33.87;30.46
56040;BME280;43937;41.366;2.072;2023-04-21T08:14:11;100128.56;;;31.06;34.49
56040;BME280;43937;41.366;2.072;2023-04-21T08:16:37;100141.72;;;32.35;32.09
56040;BME280;43937;41.366;2.072;2023-04-21T08:19:05;100107.13;;;29.96;35.61
56040;BME280;43937;41.366;2.072;2023-04-21T08:24:50;100136.56;;;30.76;34.40
56040;BME280;43937;41.366;2.072;2023-04-21T08:27:16;100139.16;;;33.51;30.67
56040;BME280;43937;41.366;2.072;2023-04-21T08:29:41;100142.63;;;32.70;31.42
56040;BME280;43937;41.366;2.072;2023-04-21T08:34:53;100143.38;;;34.31;30.11
56040;BME280;43937;41.366;2.072;2023-04-21T08:37:19;100135.81;;;33.67;30.43
56040;BME280;43937;41.366;2.072;2023-04-21T08:39:46;100143.31;;;33.63;29.77
56040;BME280;43937;41.366;2.072;2023-04-21T08:42:12;100140.59;;;34.22;28.98
56040;BME280;43937;41.366;2.072;2023-04-21T08:50:58;100161.88;;;31.88;32.68
56040;BME280;43937;41.366;2.072;2023-04-21T08:53:24;100162.25;;;32.93;31.41
56040;BME280;43937;41.366;2.072;2023-04-21T08:55:51;100163.56;;;33.04;30.62
56040;BME280;43937;41.366;2.072;2023-04-21T08:58:17;100168.38;;;32.37;32.25
56040;BME280;43937;41.366;2.072;2023-04-21T09:00:43;100171.41;;;32.01;32.30
56040;BME280;43937;41.366;2.072;2023-04-21T09:03:08;100175.00;;;31.03;33.99
56040;BME280;43937;41.366;2.072;2023-04-21T09:06:39;100180.00;;;29.35;35.77
56040;BME280;43937;41.366;2.072;2023-04-21T09:09:07;100182.63;;;28.89;37.64
56040;BME280;43937;41.366;2.072;2023-04-21T09:13:19;100176.50;;;27.96;39.55
56040;BME280;43937;41.366;2.072;2023-04-21T09:15:49;100172.41;;;28.12;39.99
56040;BME280;43937;41.366;2.072;2023-04-21T09:18:19;100186.31;;;28.65;38.79
56040;BME280;43937;41.366;2.072;2023-04-21T09:20:48;100190.63;;;28.09;40.21
56040;BME280;43937;41.366;2.072;2023-04-21T09:26:04;100168.38;;;28.47;38.42
56040;BME280;43937;41.366;2.072;2023-04-21T09:28:58;100188.16;;;27.74;40.01
56040;BME280;43937;41.366;2.072;2023-04-21T09:32:23;100197.31;;;27.21;41.67
56040;BME280;43937;41.366;2.072;2023-04-21T09:36:17;100192.56;;;27.85;39.83
56040;BME280;43937;41.366;2.072;2023-04-21T09:38:48;100192.66;;;28.04;40.00
56040;BME280;43937;41.366;2.072;2023-04-21T09:45:00;100167.41;;;28.09;39.34
56040;BME280;43937;41.366;2.072;2023-04-21T09:48:16;100198.31;;;28.23;39.10
56040;BME280;43937;41.366;2.072;2023-04-21T09:50:42;100185.16;;;27.65;39.16
56040;BME280;43937;41.366;2.072;2023-04-21T09:53:13;100180.50;;;27.55;40.94
56040;BME280;43937;41.366;2.072;2023-04-21T09:55:40;100195.31;;;27.56;40.88
56040;BME280;43937;41.366;2.072;2023-04-21T09:58:08;100215.44;;;27.24;41.68
56040;BME280;43937;41.366;2.072;2023-04-21T10:00:34;100207.38;;;27.85;40.82
56040;BME280;43937;41.366;2.072;2023-04-21T10:09:57;100177.78;;;27.16;40.88
56040;BME280;43937;41.366;2.072;2023-04-21T10:12:24;100218.16;;;27.34;41.35
56040;BME280;43937;41.366;2.072;2023-04-21T10:14:54;100226.81;;;26.88;42.20
56040;BME280;43937;41.366;2.072;2023-04-21T10:17:25;100219.09;;;27.53;40.52
56040;BME280;43937;41.366;2.072;2023-04-21T10:19:55;100197.47;;;27.69;40.42
56040;BME280;43937;41.366;2.072;2023-04-21T10:23:09;100221.03;;;28.45;39.51
56040;BME280;43937;41.366;2.072;2023-04-21T10:25:48;100215.22;;;27.49;41.22
56040;BME280;43937;41.366;2.072;2023-04-21T10:28:17;100213.88;;;27.76;40.86
56040;BME280;43937;41.366;2.072;2023-04-21T10:30:42;100214.81;;;27.66;41.92
56040;BME280;43937;41.366;2.072;2023-04-21T10:34:42;100213.25;;;28.37;39.09
56040;BME280;43937;41.366;2.072;2023-04-21T10:37:10;100215.94;;;27.65;40.31
56040;BME280;43937;41.366;2.072;2023-04-21T10:39:43;100224.13;;;28.44;38.86
56040;BME280;43937;41.366;2.072;2023-04-21T10:48:51;100227.03;;;27.75;40.39
56040;BME280;43937;41.366;2.072;2023-04-21T10:51:16;100215.78;;;27.85;39.66
56040;BME280;43937;41.366;2.072;2023-04-21T10:53:43;100208.28;;;27.76;40.96
56040;BME280;43937;41.366;2.072;2023-04-21T10:57:24;100224.94;;;27.23;42.19
56040;BME280;43937;41.366;2.072;2023-04-21T10:59:50;100221.41;;;27.46;41.44
56040;BME280;43937;41.366;2.072;2023-04-21T11:02:36;100220.41;;;27.66;40.88
56040;BME280;43937;41.366;2.072;2023-04-21T11:05:02;100219.41;;;27.86;41.04
56040;BME280;43937;41.366;2.072;2023-04-21T11:07:28;100223.03;;;27.86;40.73
56040;BME280;43937;41.366;2.072;2023-04-21T11:11:28;100216.22;;;28.22;40.83
56040;BME280;43937;41.366;2.072;2023-04-21T11:13:54;100190.13;;;27.73;41.51
56040;BME280;43937;41.366;2.072;2023-04-21T11:17:35;100215.81;;;27.80;41.15
56040;BME280;43937;41.366;2.072;2023-04-21T11:20:03;100182.59;;;28.03;41.16
56040;BME280;43937;41.366;2.072;2023-04-21T11:22:28;100222.41;;;27.95;40.74
56040;BME280;43937;41.366;2.072;2023-04-21T11:24:55;100222.50;;;28.62;40.16
56040;BME280;43937;41.366;2.072;2023-04-21T11:27:22;100226.66;;;28.64;39.58
56040;BME280;43937;41.366;2.072;2023-04-21T11:29:49;100216.31;;;27.88;40.54
56040;BME280;43937;41.366;2.072;2023-04-21T11:32:15;100220.59;;;27.80;39.92
56040;BME280;43937;41.366;2.072;2023-04-21T11:35:42;100220.22;;;27.86;40.40
56040;BME280;43937;41.366;2.072;2023-04-21T11:40:48;100208.06;;;27.72;40.83
56040;BME280;43937;41.366;2.072;2023-04-21T11:43:15;100213.56;;;27.48;39.96
56040;BME280;43937;41.366;2.072;2023-04-21T11:45:41;100212.66;;;27.58;40.06
56040;BME280;43937;41.366;2.072;2023-04-21T11:48:16;100212.44;;;27.15;41.20
56040;BME280;43937;41.366;2.072;2023-04-21T11:50:47;100213.97;;;27.31;41.90
56040;BME280;43937;41.366;2.072;2023-04-21T11:53:14;100214.66;;;27.52;40.76
56040;BME280;43937;41.366;2.072;2023-04-21T11:55:44;100213.22;;;27.89;39.67
56040;BME280;43937;41.366;2.072;2023-04-21T11:58:10;100208.81;;;27.83;37.54
56040;BME280;43937;41.366;2.072;2023-04-21T12:00:42;100217.28;;;28.02;38.76
56040;BME280;43937;41.366;2.072;2023-04-21T12:03:08;100199.50;;;27.58;38.81
56040;BME280;43937;41.366;2.072;2023-04-21T12:05:36;100206.63;;;27.40;39.41
56040;BME280;43937;41.366;2.072;2023-04-21T12:08:02;100207.84;;;27.63;38.92
56040;BME280;43937;41.366;2.072;2023-04-21T12:10:30;100219.47;;;27.76;39.58
56040;BME280;43937;41.366;2.072;2023-04-21T12:12:55;100221.69;;;27.84;40.69
56040;BME280;43937;41.366;2.072;2023-04-21T12:15:21;100232.13;;;27.68;39.87
56040;BME280;43937;41.366;2.072;2023-04-21T12:17:52;100224.91;;;27.62;38.19
56040;BME280;43937;41.366;2.072;2023-04-21T12:20:19;100222.44;;;28.19;38.46
56040;BME280;43937;41.366;2.072;2023-04-21T12:22:45;100202.78;;;28.00;38.52
56040;BME280;43937;41.366;2.072;2023-04-21T12:25:12;100213.06;;;28.04;38.23
56040;BME280;43937;41.366;2.072;2023-04-21T12:27:49;100225.34;;;27.45;40.09
56040;BME280;43937;41.366;2.072;2023-04-21T12:31:44;100218.72;;;27.31;41.44
56040;BME280;43937;41.366;2.072;2023-04-21T12:34:10;100224.69;;;27.14;40.59
56040;BME280;43937;41.366;2.072;2023-04-21T12:38:44;100208.72;;;27.25;41.15
56040;BME280;43937;41.366;2.072;2023-04-21T12:41:09;100220.81;;;27.15;40.43
56040;BME280;43937;41.366;2.072;2023-04-21T12:45:32;100217.00;;;28.03;39.65
56040;BME280;43937;41.366;2.072;2023-04-21T12:47:57;100224.53;;;27.39;40.70
56040;BME280;43937;41.366;2.072;2023-04-21T12:50:23;100189.44;;;27.23;40.71
56040;BME280;43937;41.366;2.072;2023-04-21T12:52:49;100213.47;;;27.24;40.71
56040;BME280;43937;41.366;2.072;2023-04-21T12:56:32;100212.75;;;27.82;40.14
56040;BME280;43937;41.366;2.072;2023-04-21T12:58:58;100209.63;;;27.83;39.83
56040;BME280;43937;41.366;2.072;2023-04-21T13:01:23;100207.66;;;27.55;40.44
56040;BME280;43937;41.366;2.072;2023-04-21T13:03:49;100205.56;;;27.36;40.93
56040;BME280;43937;41.366;2.072;2023-04-21T13:07:15;100213.59;;;27.04;41.51
56040;BME280;43937;41.366;2.072;2023-04-21T13:09:43;100222.53;;;27.01;41.06
56040;BME280;43937;41.366;2.072;2023-04-21T13:12:08;100218.78;;;26.76;41.20
56040;BME280;43937;41.366;2.072;2023-04-21T13:15:38;100217.63;;;26.77;41.33
56040;BME280;43937;41.366;2.072;2023-04-21T13:18:04;100214.47;;;26.94;41.98
56040;BME280;43937;41.366;2.072;2023-04-21T13:20:29;100203.69;;;26.77;41.96
56040;BME280;43937;41.366;2.072;2023-04-21T13:22:55;100197.66;;;26.60;41.79
56040;BME280;43937;41.366;2.072;2023-04-21T13:25:20;100202.75;;;26.97;41.42
56040;BME280;43937;41.366;2.072;2023-04-21T13:27:46;100189.03;;;27.40;41.47
56040;BME280;43937;41.366;2.072;2023-04-21T13:30:13;100204.41;;;27.43;41.40
56040;BME280;43937;41.366;2.072;2023-04-21T13:32:39;100202.09;;;27.50;41.05
56040;BME280;43937;41.366;2.072;2023-04-21T13:35:05;100195.66;;;27.10;41.17
56040;BME280;43937;41.366;2.072;2023-04-21T13:37:36;100192.66;;;26.52;42.86
56040;BME280;43937;41.366;2.072;2023-04-21T13:40:02;100191.38;;;27.28;41.39
56040;BME280;43937;41.366;2.072;2023-04-21T13:42:28;100187.06;;;26.46;42.78
56040;BME280;43937;41.366;2.072;2023-04-21T13:44:54;100186.03;;;26.27;43.54
56040;BME280;43937;41.366;2.072;2023-04-21T13:49:30;100189.69;;;26.82;42.84
56040;BME280;43937;41.366;2.072;2023-04-21T13:51:55;100191.03;;;26.90;41.81
56040;BME280;43937;41.366;2.072;2023-04-21T13:54:21;100187.38;;;27.39;40.60
56040;BME280;43937;41.366;2.072;2023-04-21T13:58:05;100186.56;;;26.34;43.06
56040;BME280;43937;41.366;2.072;2023-04-21T14:01:26;100187.22;;;26.76;42.84
56040;BME280;43937;41.366;2.072;2023-04-21T14:03:51;100169.09;;;26.73;42.45
56040;BME280;43937;41.366;2.072;2023-04-21T14:08:17;100165.47;;;25.97;44.18
56040;BME280;43937;41.366;2.072;2023-04-21T14:10:42;100179.84;;;26.35;42.89
56040;BME280;43937;41.366;2.072;2023-04-21T14:13:08;100186.25;;;26.41;42.56
56040;BME280;43937;41.366;2.072;2023-04-21T14:15:33;100175.53;;;25.68;44.33
56040;BME280;43937;41.366;2.072;2023-04-21T14:17:59;100173.31;;;25.90;44.47
56040;BME280;43937;41.366;2.072;2023-04-21T14:20:37;100189.47;;;25.88;44.52
56040;BME280;43937;41.366;2.072;2023-04-21T14:23:03;100189.47;;;25.83;44.71
56040;BME280;43937;41.366;2.072;2023-04-21T14:26:35;100198.38;;;26.06;44.79
56040;BME280;43937;41.366;2.072;2023-04-21T14:29:01;100194.22;;;25.88;45.60
56040;BME280;43937;41.366;2.072;2023-04-21T14:31:29;100181.41;;;25.30;46.20
56040;BME280;43937;41.366;2.072;2023-04-21T14:33:54;100179.72;;;25.19;46.43
56040;BME280;43937;41.366;2.072;2023-04-21T14:36:20;100184.47;;;25.49;46.14
56040;BME280;43937;41.366;2.072;2023-04-21T14:38:46;100187.25;;;25.34;46.18
56040;BME280;43937;41.366;2.072;2023-04-21T14:41:11;100186.63;;;24.96;46.45
56040;BME280;43937;41.366;2.072;2023-04-21T14:43:37;100184.16;;;25.10;47.22
56040;BME280;43937;41.366;2.072;2023-04-21T14:46:03;100183.38;;;25.30;47.52
56040;BME280;43937;41.366;2.072;2023-04-21T14:48:28;100173.34;;;25.54;46.39
56040;BME280;43937;41.366;2.072;2023-04-21T14:50:54;100180.56;;;25.35;46.63
56040;BME280;43937;41.366;2.072;2023-04-21T14:53:22;100171.00;;;24.80;47.43
56040;BME280;43937;41.366;2.072;2023-04-21T14:55:47;100171.97;;;24.33;48.71
56040;BME280;43937;41.366;2.072;2023-04-21T14:58:13;100177.41;;;24.70;48.38
56040;BME280;43937;41.366;2.072;2023-04-21T15:00:38;100171.91;;;24.22;48.96
56040;BME280;43937;41.366;2.072;2023-04-21T15:05:00;100175.28;;;25.18;47.88
56040;BME280;43937;41.366;2.072;2023-04-21T15:07:26;100169.91;;;24.86;49.26
56040;BME280;43937;41.366;2.072;2023-04-21T15:09:51;100173.81;;;24.85;49.32
56040;BME280;43937;41.366;2.072;2023-04-21T15:12:17;100173.72;;;24.49;49.88
56040;BME280;43937;41.366;2.072;2023-04-21T15:14:43;100163.53;;;24.12;51.84
56040;BME280;43937;41.366;2.072;2023-04-21T15:17:08;100174.84;;;24.48;50.62
56040;BME280;43937;41.366;2.072;2023-04-21T15:20:23;100171.09;;;24.27;50.79
56040;BME280;43937;41.366;2.072;2023-04-21T15:22:49;100176.97;;;24.41;50.71
56040;BME280;43937;41.366;2.072;2023-04-21T15:25:14;100177.88;;;24.47;50.37
56040;BME280;43937;41.366;2.072;2023-04-21T15:27:40;100174.31;;;24.61;49.63
56040;BME280;43937;41.366;2.072;2023-04-21T15:30:06;100176.31;;;24.86;50.12
56040;BME280;43937;41.366;2.072;2023-04-21T15:32:31;100177.66;;;24.68;50.70
56040;BME280;43937;41.366;2.072;2023-04-21T15:34:57;100165.75;;;24.20;52.17
56040;BME280;43937;41.366;2.072;2023-04-21T15:37:22;100170.16;;;24.11;52.12
56040;BME280;43937;41.366;2.072;2023-04-21T15:39:48;100171.25;;;24.00;52.72
56040;BME280;43937;41.366;2.072;2023-04-21T15:42:13;100163.91;;;24.36;52.25
56040;BME280;43937;41.366;2.072;2023-04-21T15:44:39;100142.19;;;24.38;51.09
56040;BME280;43937;41.366;2.072;2023-04-21T15:47:04;100174.56;;;24.60;51.25